Time;durP1;ratioP1;P1;durP2;ratioP2;P2;SDS_P1;SDS_P2;PMS_P1;PMS_P2;Temp;Humidity;BMP_temperature;BMP_pressure;BME280_temperature;BME280_humidity;BME280_pressure;Samples;Min_cycle;Max_cycle;Signal;HPM_P1;HPM_P2
2022/07/17 00:02:11;;;;;;;1.98;1.10;;;;;;;13.70;47.62;101850.47;4994720;28;20061;-33
2022/07/17 00:04:36;;;;;;;3.80;1.50;;;;;;;13.67;47.89;101852.28;4992803;28;20494;-33
2022/07/17 00:07:02;;;;;;;4.72;1.20;;;;;;;13.60;47.75;101860.22;4994330;28;20300;-32
2022/07/17 00:09:27;;;;;;;1.45;1.33;;;;;;;13.60;48.13;101856.69;4991425;28;20034;-32
2022/07/17 00:11:52;;;;;;;2.17;1.13;;;;;;;13.56;48.09;101861.13;4973947;28;20027;-32
2022/07/17 00:14:18;;;;;;;1.95;1.45;;;;;;;13.51;48.04;101860.28;4975024;28;20027;-32
2022/07/17 00:16:43;;;;;;;3.53;1.15;;;;;;;13.49;48.16;101863.78;4975423;28;20027;-32
2022/07/17 00:19:08;;;;;;;1.83;1.27;;;;;;;13.46;47.87;101860.25;4975737;28;20114;-33
2022/07/17 00:21:34;;;;;;;1.58;1.40;;;;;;;13.42;48.26;101861.13;4974050;28;20019;-32
2022/07/17 00:23:59;;;;;;;3.53;1.65;;;;;;;13.37;48.34;101860.25;4973492;28;20031;-33
2022/07/17 00:26:24;;;;;;;2.00;1.33;;;;;;;13.37;47.86;101864.69;4976300;28;20018;-33
2022/07/17 00:28:50;;;;;;;3.72;1.65;;;;;;;13.33;48.21;101869.97;4975559;28;20031;-33
2022/07/17 00:31:15;;;;;;;2.15;1.17;;;;;;;13.30;47.91;101875.28;4974729;28;20073;-32
2022/07/17 00:33:41;;;;;;;2.25;1.15;;;;;;;13.21;47.92;101880.59;4982528;28;20077;-33
2022/07/17 00:36:07;;;;;;;2.30;1.35;;;;;;;13.20;48.41;101884.09;4994298;28;20041;-32
2022/07/17 00:38:33;;;;;;;1.73;1.15;;;;;;;13.13;48.28;101880.59;4976177;28;20533;-33
2022/07/17 00:40:59;;;;;;;2.22;1.20;;;;;;;13.08;48.59;101874.41;4994570;28;20050;-33
2022/07/17 00:43:25;;;;;;;2.75;1.48;;;;;;;13.03;48.54;101865.56;4987962;28;20475;-32
2022/07/17 00:45:58;;;;;;;1.45;1.35;;;;;;;13.00;48.55;101873.53;4973888;28;20102;-32
2022/07/17 00:48:24;;;;;;;2.20;1.30;;;;;;;12.97;49.19;101874.41;4975550;28;20023;-33
2022/07/17 00:50:50;;;;;;;1.73;1.40;;;;;;;12.93;49.08;101868.22;4975044;28;20570;-32
2022/07/17 00:53:15;;;;;;;2.20;1.20;;;;;;;12.91;49.18;101862.03;4974633;28;20117;-33
2022/07/17 00:55:41;;;;;;;1.75;1.30;;;;;;;12.89;48.82;101857.63;4974521;28;20118;-31
2022/07/17 00:58:07;;;;;;;2.67;1.25;;;;;;;12.84;49.29;101870.88;4974539;28;20110;-32
2022/07/17 01:00:33;;;;;;;1.88;1.50;;;;;;;12.81;49.12;101868.22;4983607;28;20030;-33
2022/07/17 01:02:58;;;;;;;2.13;1.40;;;;;;;12.76;49.09;101862.94;4993823;28;20438;-32
2022/07/17 01:05:23;;;;;;;1.75;1.35;;;;;;;12.74;49.25;101863.81;4961561;28;20068;-33
2022/07/17 01:07:49;;;;;;;1.95;1.02;;;;;;;12.75;49.44;101865.56;4975228;28;20502;-33
2022/07/17 01:10:18;;;;;;;2.67;1.45;;;;;;;12.69;49.60;101862.03;4972636;28;20030;-33
2022/07/17 01:12:45;;;;;;;3.25;1.50;;;;;;;12.63;49.35;101862.03;4956718;28;20403;-33
2022/07/17 01:15:10;;;;;;;1.83;1.30;;;;;;;12.61;49.33;101863.81;4973622;28;20026;-33
2022/07/17 01:17:36;;;;;;;1.95;1.25;;;;;;;12.55;49.32;101864.69;4974617;28;20027;-32
2022/07/17 01:20:04;;;;;;;3.15;1.35;;;;;;;12.52;49.11;101862.03;4991026;28;20030;-32
2022/07/17 01:22:31;;;;;;;1.95;1.10;;;;;;;12.49;49.18;101869.06;4992697;28;20022;-32
2022/07/17 01:24:56;;;;;;;1.35;1.17;;;;;;;12.47;49.56;101860.25;4991362;28;20118;-32
2022/07/17 01:27:21;;;;;;;1.35;1.20;;;;;;;12.44;49.75;101862.00;4991819;28;20034;-33
2022/07/17 01:29:47;;;;;;;1.88;1.38;;;;;;;12.41;49.72;101861.97;4993228;28;20055;-33
2022/07/17 01:32:12;;;;;;;2.83;1.58;;;;;;;12.38;49.96;101864.66;4993154;28;20037;-32
2022/07/17 01:34:37;;;;;;;2.00;1.63;;;;;;;12.36;49.88;101858.44;4989811;28;20023;-32
2022/07/17 01:37:03;;;;;;;2.33;1.30;;;;;;;12.35;49.88;101853.16;4973297;28;20031;-32
2022/07/17 01:42:12;;;;;;;3.15;1.20;;;;;;;12.29;50.13;101856.66;4973102;28;20057;-29
2022/07/17 01:44:37;;;;;;;1.98;1.60;;;;;;;12.23;50.00;101861.91;4973000;28;20435;-29
2022/07/17 01:47:03;;;;;;;3.72;1.40;;;;;;;12.21;49.80;101853.13;4971738;28;20398;-29
2022/07/17 01:49:28;;;;;;;1.50;1.40;;;;;;;12.14;49.88;101854.88;4972922;28;20086;-29
2022/07/17 01:51:54;;;;;;;1.75;1.20;;;;;;;12.12;49.97;101854.88;4977952;28;20026;-29
2022/07/17 01:54:19;;;;;;;5.35;1.30;;;;;;;12.10;50.22;101856.59;4992301;28;20038;-29
2022/07/17 01:56:44;;;;;;;3.67;1.13;;;;;;;12.05;50.37;101853.03;4992626;28;20053;-29
2022/07/17 01:59:10;;;;;;;1.30;1.10;;;;;;;12.00;50.38;101850.38;4990712;28;20065;-29
2022/07/17 02:01:35;;;;;;;1.80;1.30;;;;;;;12.00;50.64;101855.66;4990755;28;20113;-30
2022/07/17 02:04:00;;;;;;;2.42;1.38;;;;;;;11.99;50.49;101845.06;4992004;28;20045;-29
2022/07/17 02:06:26;;;;;;;2.53;1.33;;;;;;;11.96;50.61;101848.59;4974671;28;20478;-29
2022/07/17 02:08:51;;;;;;;2.33;1.45;;;;;;;11.94;50.50;101856.50;4990556;28;20542;-29
2022/07/17 02:11:18;;;;;;;2.95;1.40;;;;;;;11.88;50.83;101848.56;4991142;28;20029;-29
2022/07/17 02:13:43;;;;;;;1.50;1.40;;;;;;;11.86;50.55;101852.97;4990744;28;20121;-29
2022/07/17 02:16:08;;;;;;;2.95;1.30;;;;;;;11.85;51.02;101845.03;4992544;28;20449;-29
2022/07/17 02:18:34;;;;;;;2.97;1.58;;;;;;;11.84;51.34;101856.47;4975774;28;20041;-29
2022/07/17 02:20:59;;;;;;;2.45;1.35;;;;;;;11.84;51.74;101859.13;4990881;28;20034;-29
2022/07/17 02:23:24;;;;;;;2.28;1.70;;;;;;;11.80;51.47;101864.38;4992608;28;20027;-29
2022/07/17 02:25:50;;;;;;;4.20;1.40;;;;;;;11.79;51.37;101870.56;4993266;28;20065;-29
2022/07/17 02:28:15;;;;;;;2.90;1.30;;;;;;;11.71;51.15;101863.47;4992830;28;20026;-29
2022/07/17 02:30:40;;;;;;;2.03;1.35;;;;;;;11.68;51.30;101859.91;4992531;28;20100;-29
2022/07/17 02:33:06;;;;;;;3.35;1.75;;;;;;;11.66;51.41;101860.78;4996563;28;20536;-29
2022/07/17 02:35:32;;;;;;;3.67;1.50;;;;;;;11.62;51.37;101864.28;4996010;28;20453;-29
2022/07/17 02:37:57;;;;;;;2.63;1.40;;;;;;;11.64;51.40;101868.69;4992449;28;20538;-29
2022/07/17 02:40:23;;;;;;;2.45;1.33;;;;;;;11.60;51.18;101855.47;4992402;28;20034;-29
2022/07/17 02:42:48;;;;;;;1.45;1.27;;;;;;;11.54;51.70;101858.97;4966490;28;20018;-29
2022/07/17 02:45:14;;;;;;;3.10;1.05;;;;;;;11.56;51.91;101867.78;4994085;28;20064;-29
2022/07/17 02:47:39;;;;;;;4.30;1.50;;;;;;;11.49;51.50;101871.25;5011624;28;20385;-29
2022/07/17 02:50:07;;;;;;;2.88;1.40;;;;;;;11.46;51.30;101871.22;4994208;28;20040;-29
2022/07/17 02:52:32;;;;;;;4.22;1.38;;;;;;;11.42;51.68;101876.50;4994243;28;20026;-29
2022/07/17 02:54:58;;;;;;;2.25;1.38;;;;;;;11.39;51.68;101871.22;5011960;28;20030;-29
2022/07/17 02:57:23;;;;;;;2.78;1.30;;;;;;;11.36;51.67;101876.47;4993926;28;20030;-29
2022/07/17 02:59:48;;;;;;;1.65;1.45;;;;;;;11.37;51.63;101869.44;5011359;28;20394;-29
2022/07/17 03:02:14;;;;;;;3.33;2.08;;;;;;;11.35;51.55;101871.16;4999975;28;20021;-29
2022/07/17 03:04:39;;;;;;;2.35;1.73;;;;;;;11.31;51.59;101875.56;5034895;28;20029;-29
2022/07/17 03:07:05;;;;;;;1.77;1.60;;;;;;;11.27;51.34;101871.13;5008973;28;20053;-29
2022/07/17 03:09:30;;;;;;;1.92;1.25;;;;;;;11.22;51.60;101879.00;4995211;28;20394;-29
2022/07/17 03:11:56;;;;;;;2.08;1.30;;;;;;;11.20;51.41;101867.53;4978232;28;20031;-31
2022/07/17 03:14:21;;;;;;;1.75;1.10;;;;;;;11.19;51.52;101876.34;4978047;28;20470;-29
2022/07/17 03:16:46;;;;;;;2.97;1.40;;;;;;;11.15;51.21;101875.44;4978446;28;20521;-29
2022/07/17 03:19:12;;;;;;;1.40;1.30;;;;;;;11.11;51.34;101865.69;4975984;28;20126;-29
2022/07/17 03:21:37;;;;;;;1.70;1.55;;;;;;;11.09;51.68;101870.09;4975600;28;20394;-29
2022/07/17 03:24:02;;;;;;;2.50;1.80;;;;;;;11.07;51.49;101871.84;4974925;28;20438;-29
2022/07/17 03:26:28;;;;;;;1.80;1.42;;;;;;;11.05;51.72;101870.94;4975534;28;20545;-29
2022/07/17 03:28:53;;;;;;;2.40;1.65;;;;;;;11.02;52.32;101876.19;4975863;28;20105;-29
2022/07/17 03:31:18;;;;;;;2.33;1.23;;;;;;;11.02;52.52;101878.84;4974783;28;20479;-29
2022/07/17 03:33:44;;;;;;;2.25;1.67;;;;;;;11.02;52.40;101878.84;4976065;28;20504;-29
2022/07/17 03:36:10;;;;;;;2.08;1.30;;;;;;;10.97;52.50;101876.16;4976231;28;20522;-29
2022/07/17 03:38:35;;;;;;;1.77;1.40;;;;;;;10.94;52.26;101885.81;4974499;28;20383;-29
2022/07/17 03:41:00;;;;;;;3.92;1.50;;;;;;;10.93;52.34;101886.69;4975466;28;20061;-29
2022/07/17 03:43:26;;;;;;;1.33;1.23;;;;;;;10.90;52.29;101880.50;4957561;28;20022;-29
2022/07/17 03:45:51;;;;;;;1.95;1.75;;;;;;;10.89;52.27;101888.41;4975286;28;20023;-29
2022/07/17 03:48:17;;;;;;;1.60;1.50;;;;;;;10.86;52.41;101888.38;4976890;28;20031;-29
2022/07/17 03:50:42;;;;;;;2.40;1.38;;;;;;;10.85;52.47;101892.78;4993339;28;20397;-29
2022/07/17 03:53:08;;;;;;;2.20;1.67;;;;;;;10.83;52.87;101897.16;4994067;28;20035;-29
2022/07/17 03:55:33;;;;;;;2.15;1.30;;;;;;;10.84;52.65;101895.41;4994628;28;20109;-30
2022/07/17 03:57:59;;;;;;;1.40;1.30;;;;;;;10.81;52.37;101896.28;4993329;28;20475;-29
2022/07/17 04:00:24;;;;;;;3.13;1.75;;;;;;;10.77;52.64;101899.72;4994324;28;20067;-29
2022/07/17 04:02:49;;;;;;;2.50;1.45;;;;;;;10.78;52.72;101890.94;4994434;28;20030;-29
2022/07/17 04:05:15;;;;;;;2.17;1.13;;;;;;;10.75;52.82;101906.75;4994036;28;20041;-29
2022/07/17 04:07:41;;;;;;;1.50;1.40;;;;;;;10.72;52.48;101909.34;4994067;28;20045;-29
2022/07/17 04:10:08;;;;;;;1.45;1.30;;;;;;;10.71;52.81;101912.88;4976828;28;20033;-29
2022/07/17 04:12:35;;;;;;;1.77;1.30;;;;;;;10.71;52.95;101912.88;4992732;28;20058;-30
2022/07/17 04:15:00;;;;;;;2.05;1.83;;;;;;;10.71;52.98;101915.50;4994301;28;20029;-29
2022/07/17 04:17:26;;;;;;;1.50;1.25;;;;;;;10.72;53.33;101912.00;4993931;28;20457;-29
2022/07/17 04:19:52;;;;;;;1.65;1.25;;;;;;;10.72;53.19;101912.00;4994209;28;20034;-29
2022/07/17 04:22:17;;;;;;;2.53;1.30;;;;;;;10.72;53.33;101910.25;4991934;28;20026;-33
2022/07/17 04:24:43;;;;;;;1.42;1.33;;;;;;;10.73;53.16;101914.66;4992590;28;20018;-33
2022/07/17 04:27:09;;;;;;;2.00;1.40;;;;;;;10.73;53.19;101912.00;4995127;28;20038;-32
2022/07/17 04:29:34;;;;;;;3.80;1.52;;;;;;;10.78;53.32;101919.97;4995276;28;20029;-32
2022/07/17 04:32:00;;;;;;;2.13;1.25;;;;;;;10.79;53.48;101911.19;4995655;28;20096;-32
2022/07/17 04:34:26;;;;;;;2.10;1.50;;;;;;;10.81;53.46;101917.38;4993578;28;20639;-32
2022/07/17 04:36:52;;;;;;;2.08;1.50;;;;;;;10.85;53.37;101916.53;4977844;28;20042;-32
2022/07/17 04:39:17;;;;;;;2.78;1.52;;;;;;;10.89;53.61;101920.06;4987112;28;20081;-32
2022/07/17 04:41:43;;;;;;;1.95;1.50;;;;;;;10.91;53.55;101924.50;4975441;28;20031;-32
2022/07/17 04:44:09;;;;;;;1.88;1.58;;;;;;;10.95;53.53;101916.63;4957675;28;20019;-33
2022/07/17 04:46:34;;;;;;;1.88;1.58;;;;;;;10.99;53.29;101914.03;4975235;28;20498;-33
2022/07/17 04:48:59;;;;;;;1.20;1.10;;;;;;;11.04;53.54;101925.50;4973780;28;20122;-32
2022/07/17 04:51:25;;;;;;;3.17;1.70;;;;;;;11.06;53.50;101925.50;4974829;28;20058;-33
2022/07/17 04:53:50;;;;;;;4.50;1.77;;;;;;;11.14;53.57;101926.47;4974439;28;20031;-33
2022/07/17 04:56:16;;;;;;;1.85;1.75;;;;;;;11.19;53.54;101934.44;4986114;28;20030;-32
2022/07/17 04:58:41;;;;;;;1.67;1.35;;;;;;;11.23;53.65;101935.31;4993302;28;20053;-32
2022/07/17 05:01:06;;;;;;;2.33;1.48;;;;;;;11.27;53.44;101947.72;4994206;28;20057;-33
2022/07/17 05:03:32;;;;;;;2.28;1.50;;;;;;;11.30;53.59;101945.06;4993430;28;20034;-33
2022/07/17 05:05:57;;;;;;;2.13;1.40;;;;;;;11.33;53.79;101953.03;4993692;28;20026;-29
2022/07/17 05:08:23;;;;;;;2.20;1.55;;;;;;;11.39;53.53;101953.09;4992571;28;20026;-32
2022/07/17 05:10:49;;;;;;;2.13;1.65;;;;;;;11.47;53.53;101957.56;5009436;28;20037;-32
2022/07/17 05:13:14;;;;;;;2.03;1.25;;;;;;;11.50;53.45;101958.44;4990637;28;20022;-32
2022/07/17 05:15:40;;;;;;;1.38;1.27;;;;;;;11.57;53.68;101947.94;4993171;28;20109;-32
2022/07/17 05:18:05;;;;;;;1.92;1.30;;;;;;;11.63;53.41;101951.50;5009289;28;20521;-32
2022/07/17 05:20:31;;;;;;;1.50;1.40;;;;;;;11.68;53.43;101955.06;4992424;28;20382;-32
2022/07/17 05:22:56;;;;;;;1.40;1.30;;;;;;;11.76;53.45;101947.19;4992458;28;20014;-32
2022/07/17 05:25:22;;;;;;;1.48;1.38;;;;;;;11.82;53.16;101951.63;4993525;28;20026;-33
2022/07/17 05:27:47;;;;;;;2.85;1.40;;;;;;;11.89;53.19;101944.59;4993837;28;20453;-32
2022/07/17 05:30:12;;;;;;;1.80;1.63;;;;;;;11.97;53.22;101939.38;4991561;28;20065;-33
2022/07/17 05:32:38;;;;;;;2.78;1.33;;;;;;;12.03;52.85;101942.94;4992812;28;20387;-32
2022/07/17 05:35:03;;;;;;;2.38;1.42;;;;;;;12.11;53.48;101940.38;4972917;28;20053;-32
2022/07/17 05:37:29;;;;;;;3.05;1.30;;;;;;;12.18;53.61;101943.91;4973191;28;20037;-32
2022/07/17 05:39:54;;;;;;;2.50;1.85;;;;;;;12.27;53.33;101936.00;4974076;28;20027;-32
2022/07/17 05:42:19;;;;;;;2.10;1.60;;;;;;;12.38;53.10;101921.94;4972633;28;20118;-32
2022/07/17 05:44:45;;;;;;;2.45;1.63;;;;;;;12.45;53.56;101914.03;4973076;28;20023;-32
2022/07/17 05:47:10;;;;;;;1.48;1.35;;;;;;;12.56;53.30;101924.66;4973996;28;20026;-32
2022/07/17 05:49:35;;;;;;;1.55;1.45;;;;;;;12.64;52.96;101924.66;4974240;28;20393;-32
2022/07/17 05:52:01;;;;;;;2.75;1.50;;;;;;;12.72;53.81;101926.44;4973612;28;20485;-32
2022/07/17 05:54:26;;;;;;;1.98;1.42;;;;;;;12.78;54.39;101931.75;4956398;28;20086;-32
2022/07/17 05:56:52;;;;;;;1.98;1.38;;;;;;;12.85;54.90;101938.84;4973031;28;20078;-33
2022/07/17 05:59:17;;;;;;;2.40;1.77;;;;;;;12.92;54.38;101945.91;4973317;28;20540;-32
2022/07/17 06:01:43;;;;;;;1.77;1.67;;;;;;;13.02;55.52;101943.25;4973523;28;20517;-33
2022/07/17 06:04:08;;;;;;;3.30;1.30;;;;;;;13.11;54.27;101953.88;4982862;28;20442;-32
2022/07/17 06:06:33;;;;;;;4.18;1.52;;;;;;;13.21;54.80;101960.94;4973301;28;20384;-32
2022/07/17 06:09:00;;;;;;;2.95;1.48;;;;;;;13.31;54.58;101956.50;4973535;28;20023;-32
2022/07/17 06:11:26;;;;;;;3.05;1.63;;;;;;;13.41;54.17;101964.47;5004287;28;20035;-32
2022/07/17 06:13:51;;;;;;;1.83;1.30;;;;;;;13.52;54.59;101964.50;4972967;28;20026;-33
2022/07/17 06:16:16;;;;;;;1.98;1.40;;;;;;;13.62;54.65;101963.63;4972085;28;20038;-32
2022/07/17 06:18:42;;;;;;;2.83;1.65;;;;;;;13.73;55.25;101967.13;4992237;28;20044;-32
2022/07/17 06:21:07;;;;;;;3.40;2.00;;;;;;;13.83;54.29;101967.09;4978115;28;20106;-32
2022/07/17 06:23:33;;;;;;;4.72;1.60;;;;;;;13.92;54.16;101953.84;4992056;28;20023;-32
2022/07/17 06:25:58;;;;;;;4.45;1.95;;;;;;;14.03;54.52;101961.75;4975407;28;20034;-33
2022/07/17 06:28:23;;;;;;;4.70;1.42;;;;;;;14.10;54.44;101958.19;4974415;28;20029;-32
2022/07/17 06:30:49;;;;;;;3.40;1.40;;;;;;;14.24;54.38;101965.25;4960097;28;20061;-32
2022/07/17 06:33:14;;;;;;;2.42;1.70;;;;;;;14.35;54.69;101968.75;4980262;28;20488;-33
2022/07/17 06:35:39;;;;;;;3.75;1.75;;;;;;;14.46;55.31;101960.72;5012341;28;20552;-32
2022/07/17 06:38:05;;;;;;;2.88;1.65;;;;;;;14.57;54.61;101962.44;4999115;28;20494;-32
2022/07/17 06:40:30;;;;;;;5.40;1.92;;;;;;;14.66;55.11;101967.69;4990218;28;20034;-32
2022/07/17 06:42:56;;;;;;;2.25;1.33;;;;;;;14.79;54.75;101968.53;4996890;28;20041;-32
2022/07/17 06:45:21;;;;;;;6.22;1.85;;;;;;;14.88;54.57;101967.59;4980062;28;20026;-32
2022/07/17 06:47:46;;;;;;;3.08;2.10;;;;;;;14.99;54.68;101970.19;5012473;28;20107;-32
2022/07/17 06:50:12;;;;;;;3.13;1.52;;;;;;;15.08;55.14;101974.56;4998231;28;20026;-32
2022/07/17 06:52:37;;;;;;;2.33;1.25;;;;;;;15.19;54.38;101966.50;5006145;28;20025;-32
2022/07/17 06:55:03;;;;;;;3.10;1.60;;;;;;;15.32;54.20;101961.97;5016181;28;20402;-32
2022/07/17 06:57:28;;;;;;;1.90;1.27;;;;;;;15.41;54.09;101956.56;5013852;28;20068;-32
2022/07/17 06:59:53;;;;;;;3.45;1.50;;;;;;;15.48;53.95;101958.25;5015475;28;20021;-32
2022/07/17 07:02:19;;;;;;;2.05;1.52;;;;;;;15.60;53.82;101961.69;4998845;28;20038;-33
2022/07/17 07:04:44;;;;;;;3.28;1.83;;;;;;;15.71;53.56;101949.19;5015231;28;20022;-32
2022/07/17 07:07:10;;;;;;;3.13;1.45;;;;;;;15.83;53.28;101942.84;5015276;28;20109;-32
2022/07/17 07:09:36;;;;;;;4.60;1.40;;;;;;;15.94;53.01;101956.03;5015482;28;20025;-32
2022/07/17 07:12:01;;;;;;;5.45;1.98;;;;;;;16.02;53.54;101942.69;4997517;28;20380;-32
2022/07/17 07:14:26;;;;;;;2.45;1.45;;;;;;;16.17;53.15;101946.94;5012672;28;20691;-32
2022/07/17 07:16:52;;;;;;;4.13;1.70;;;;;;;16.32;53.21;101950.31;4990878;28;20406;-32
2022/07/17 07:19:17;;;;;;;4.85;1.40;;;;;;;16.42;52.81;101935.97;4976250;28;20040;-32
2022/07/17 07:21:42;;;;;;;3.42;1.33;;;;;;;16.52;52.98;101942.94;4976390;28;20106;-32
2022/07/17 07:24:07;;;;;;;5.05;1.80;;;;;;;16.66;52.65;101940.09;4987470;28;20093;-29
2022/07/17 07:26:33;;;;;;;6.28;1.67;;;;;;;16.81;52.66;101932.78;4993789;28;20026;-30
2022/07/17 07:28:58;;;;;;;1.85;1.55;;;;;;;16.99;52.70;101930.72;4993198;28;20030;-30
2022/07/17 07:31:23;;;;;;;3.08;1.40;;;;;;;17.12;52.14;101942.09;4995021;28;20030;-29
2022/07/17 07:33:49;;;;;;;2.10;1.23;;;;;;;17.19;52.28;101949.09;4984992;28;20031;-29
2022/07/17 07:36:14;;;;;;;2.88;1.33;;;;;;;17.28;52.19;101946.25;4975758;28;20029;-30
2022/07/17 07:38:39;;;;;;;3.42;1.75;;;;;;;17.45;52.08;101950.44;4975358;28;20031;-30
2022/07/17 07:41:05;;;;;;;1.67;1.25;;;;;;;17.56;51.31;101943.13;4975530;28;20066;-29
2022/07/17 07:43:30;;;;;;;2.95;1.40;;;;;;;17.64;51.48;101950.09;4984528;28;20041;-30
2022/07/17 07:45:56;;;;;;;3.28;1.38;;;;;;;17.79;51.34;101949.81;4994694;28;20050;-29
2022/07/17 07:48:21;;;;;;;1.77;1.27;;;;;;;17.92;50.90;101937.09;4993955;28;20186;-29
2022/07/17 07:50:47;;;;;;;3.33;1.30;;;;;;;18.07;51.10;101930.56;4994827;28;20054;-30
2022/07/17 07:53:12;;;;;;;2.85;1.50;;;;;;;18.22;50.80;101931.19;4994492;28;20027;-30
2022/07/17 07:55:38;;;;;;;1.95;1.30;;;;;;;18.30;50.66;101928.34;4993486;28;20437;-29
2022/07/17 07:58:04;;;;;;;2.22;1.65;;;;;;;18.41;50.83;101934.31;4992944;28;20125;-28
2022/07/17 08:00:29;;;;;;;3.75;1.67;;;;;;;18.53;50.57;101932.28;4993183;28;20034;-28
2022/07/17 08:02:54;;;;;;;3.88;1.70;;;;;;;18.73;50.61;101942.53;4993278;28;20026;-29
2022/07/17 08:05:20;;;;;;;3.28;1.60;;;;;;;18.85;50.03;101931.53;4994795;28;20405;-28
2022/07/17 08:07:45;;;;;;;5.75;1.50;;;;;;;18.99;49.83;101933.03;4995273;28;20381;-28
2022/07/17 08:10:10;;;;;;;5.93;1.70;;;;;;;19.04;50.05;101941.78;4993275;28;20085;-28
2022/07/17 08:12:36;;;;;;;3.17;1.27;;;;;;;19.17;49.89;101930.84;4993044;28;20030;-29
2022/07/17 08:15:02;;;;;;;2.40;1.20;;;;;;;19.30;49.75;101932.28;4977179;28;20153;-28
2022/07/17 08:17:27;;;;;;;1.48;1.23;;;;;;;19.38;48.61;101936.56;4991082;28;20033;-28
2022/07/17 08:19:52;;;;;;;2.03;1.17;;;;;;;19.51;49.31;101951.38;4993479;28;20029;-28
2022/07/17 08:22:18;;;;;;;1.95;1.48;;;;;;;19.58;48.86;101954.75;4993128;28;20030;-28
2022/07/17 08:24:43;;;;;;;3.55;1.25;;;;;;;19.72;48.44;101965.09;5009293;28;20410;-28
2022/07/17 08:27:08;;;;;;;2.55;1.23;;;;;;;19.88;48.73;101968.22;4994438;28;20109;-28
2022/07/17 08:29:34;;;;;;;2.60;1.30;;;;;;;19.99;48.37;101951.84;4994795;28;20109;-28
2022/07/17 08:31:59;;;;;;;3.17;1.80;;;;;;;20.21;48.59;101948.59;5009512;28;20061;-28
2022/07/17 08:34:24;;;;;;;3.92;1.58;;;;;;;20.31;48.72;101947.38;4991702;28;20026;-28
2022/07/17 08:36:50;;;;;;;3.88;1.48;;;;;;;20.41;48.15;101933.72;4994037;28;20474;-28
2022/07/17 08:39:16;;;;;;;2.22;1.58;;;;;;;20.45;47.85;101935.38;4993683;28;20027;-28
2022/07/17 08:41:41;;;;;;;2.92;1.42;;;;;;;20.53;47.38;101927.97;4990825;28;20045;-28
2022/07/17 08:44:08;;;;;;;3.05;1.25;;;;;;;20.66;47.73;101924.88;4972394;28;20177;-28
2022/07/17 08:46:38;;;;;;;2.55;1.55;;;;;;;20.80;47.20;101937.88;4973128;28;20037;-28
2022/07/17 08:49:04;;;;;;;1.80;1.43;;;;;;;20.95;46.83;101937.41;4974260;28;20379;-28
2022/07/17 08:51:30;;;;;;;2.70;1.30;;;;;;;21.00;46.39;101934.56;4974114;28;20278;-29
2022/07/17 08:53:56;;;;;;;2.58;1.25;;;;;;;21.09;46.40;101934.25;4974732;28;20023;-28
2022/07/17 08:56:22;;;;;;;3.70;1.30;;;;;;;21.23;47.21;101946.31;4993104;28;20030;-29
2022/07/17 08:58:47;;;;;;;2.05;1.30;;;;;;;21.36;46.92;101950.34;5008054;28;20113;-32
2022/07/17 09:01:13;;;;;;;2.38;1.60;;;;;;;21.49;46.28;101941.84;4992478;28;20018;-31
2022/07/17 09:03:41;;;;;;;3.30;1.50;;;;;;;21.62;46.66;101939.63;4986978;28;20113;-31
2022/07/17 09:06:18;;;;;;;2.05;1.00;;;;;;;21.84;46.67;101942.41;4994278;28;20414;-31
2022/07/17 09:08:44;;;;;;;1.40;1.17;;;;;;;22.03;45.76;101936.38;4993589;28;20459;-31
2022/07/17 09:11:10;;;;;;;2.95;1.20;;;;;;;21.99;45.75;101937.41;4993147;28;20179;-31
2022/07/17 09:13:36;;;;;;;4.93;1.30;;;;;;;22.08;45.53;101934.41;4991841;28;20031;-31
2022/07/17 09:16:10;;;;;;;3.17;1.67;;;;;;;22.14;45.86;101936.84;4992436;28;20544;-30
2022/07/17 09:18:46;;;;;;;3.17;1.20;;;;;;;22.40;45.96;101929.59;4992407;28;20041;-31
2022/07/17 09:21:23;;;;;;;2.55;1.30;;;;;;;22.46;45.33;101927.56;4992723;28;20361;-31
2022/07/17 09:23:59;;;;;;;3.00;1.45;;;;;;;22.56;46.03;101929.00;4992945;28;20058;-31
2022/07/17 09:26:25;;;;;;;1.60;1.45;;;;;;;22.64;45.89;101926.03;4991552;28;20033;-31
2022/07/17 09:28:51;;;;;;;2.30;1.20;;;;;;;22.71;45.29;101913.19;4992604;28;20030;-31
2022/07/17 09:31:31;;;;;;;2.00;1.40;;;;;;;22.80;44.93;101918.19;4991557;28;20053;-31
2022/07/17 09:33:57;;;;;;;3.25;1.52;;;;;;;22.92;45.36;101919.50;4981474;28;20050;-31
2022/07/17 09:36:23;;;;;;;2.50;1.45;;;;;;;22.99;44.10;101920.09;4973118;28;20070;-31
2022/07/17 09:38:52;;;;;;;2.70;1.20;;;;;;;23.13;44.47;101923.09;4972856;28;20034;-31
2022/07/17 09:41:20;;;;;;;2.63;1.25;;;;;;;23.30;43.86;101934.94;4971919;28;20031;-31
2022/07/17 09:43:52;;;;;;;2.85;1.20;;;;;;;23.40;43.72;101922.00;4972947;28;20058;-31
2022/07/17 09:46:26;;;;;;;3.42;1.20;;;;;;;23.52;43.75;101923.28;4971573;28;20657;-31
2022/07/17 09:48:58;;;;;;;2.38;1.23;;;;;;;23.68;43.93;101918.94;4971738;28;20085;-31
2022/07/17 09:51:25;;;;;;;3.88;1.30;;;;;;;23.78;42.94;101910.47;4974122;28;20124;-31
2022/07/17 09:53:53;;;;;;;1.95;1.40;;;;;;;23.92;43.17;101916.09;4986444;28;20025;-31
2022/07/17 09:56:20;;;;;;;4.78;1.10;;;;;;;24.06;42.52;101911.88;4992609;28;20417;-31
2022/07/17 09:58:49;;;;;;;2.40;1.23;;;;;;;24.14;42.24;101915.09;4992060;28;20023;-31
2022/07/17 10:01:16;;;;;;;3.25;0.98;;;;;;;24.12;40.68;101917.03;4991009;28;20383;-31
2022/07/17 10:03:42;;;;;;;4.50;1.70;;;;;;;24.26;41.10;101915.47;4991951;28;20033;-31
2022/07/17 10:06:10;;;;;;;2.28;1.30;;;;;;;24.31;41.11;101916.16;4991822;28;20034;-31
2022/07/17 10:08:37;;;;;;;1.98;1.13;;;;;;;24.34;41.09;101918.69;4992178;28;20068;-31
2022/07/17 10:11:04;;;;;;;2.55;1.30;;;;;;;24.42;41.06;101913.81;4993074;28;20034;-31
2022/07/17 10:13:30;;;;;;;2.70;1.00;;;;;;;24.51;41.15;101922.41;4995915;28;20060;-31
2022/07/17 10:15:56;;;;;;;1.52;0.80;;;;;;;24.55;40.85;101918.59;4995068;28;20066;-31
2022/07/17 10:18:21;;;;;;;1.90;1.20;;;;;;;24.58;40.79;101921.16;4995975;28;20438;-31
2022/07/17 10:20:47;;;;;;;3.00;1.42;;;;;;;24.59;40.92;101917.50;4978703;28;20410;-31
2022/07/17 10:23:15;;;;;;;2.40;1.05;;;;;;;24.67;40.48;101914.44;4958783;28;20019;-31
2022/07/17 10:25:40;;;;;;;1.77;1.00;;;;;;;24.79;40.95;101915.63;4991884;28;20574;-31
2022/07/17 10:28:07;;;;;;;2.60;1.10;;;;;;;24.95;40.97;101908.56;4994239;28;20026;-32
2022/07/17 10:30:33;;;;;;;2.17;1.38;;;;;;;25.18;39.85;101905.63;5014776;28;20032;-31
2022/07/17 10:33:05;;;;;;;1.80;1.13;;;;;;;25.33;39.02;101902.13;5011965;28;20026;-32
2022/07/17 10:35:45;;;;;;;4.40;1.00;;;;;;;25.40;38.85;101899.97;4975271;28;20093;-31
2022/07/17 10:38:12;;;;;;;2.95;1.23;;;;;;;25.46;39.18;101901.47;4976090;28;20073;-31
2022/07/17 10:40:38;;;;;;;2.83;1.38;;;;;;;25.47;39.10;101898.69;4976638;28;20085;-32
2022/07/17 10:43:05;;;;;;;1.45;1.10;;;;;;;25.53;39.22;101907.41;4976025;28;20023;-31
2022/07/17 10:45:42;;;;;;;2.15;1.30;;;;;;;25.64;39.31;101896.94;4974790;28;20434;-31
2022/07/17 10:48:11;;;;;;;1.60;1.40;;;;;;;25.79;38.60;101894.34;4995433;28;20065;-31
2022/07/17 10:50:38;;;;;;;3.05;1.33;;;;;;;25.83;38.35;101895.94;4996671;28;20069;-30
2022/07/17 10:53:18;;;;;;;3.03;1.10;;;;;;;25.88;38.17;101891.16;4995310;28;20630;-32
2022/07/17 10:55:48;;;;;;;3.63;1.10;;;;;;;25.90;37.88;101896.50;4994369;28;20022;-31
2022/07/17 10:58:32;;;;;;;2.72;1.10;;;;;;;25.95;37.90;101889.88;4994291;28;20061;-32
2022/07/17 11:00:59;;;;;;;1.55;1.20;;;;;;;26.04;37.71;101882.19;4995694;28;20149;-31
2022/07/17 11:03:25;;;;;;;1.27;1.10;;;;;;;26.11;36.77;101878.19;4976929;28;20109;-30
2022/07/17 11:05:50;;;;;;;4.20;1.30;;;;;;;26.15;37.20;101885.19;4976809;28;20133;-31
2022/07/17 11:08:16;;;;;;;2.92;1.27;;;;;;;26.28;37.01;101876.41;4977535;28;20027;-31
2022/07/17 11:10:41;;;;;;;2.97;1.27;;;;;;;26.34;36.93;101873.34;4974833;28;20058;-30
2022/07/17 11:13:09;;;;;;;1.90;1.38;;;;;;;26.43;36.24;101880.91;4976688;28;20022;-33
2022/07/17 11:15:46;;;;;;;2.53;1.50;;;;;;;26.46;36.02;101874.47;4976753;28;20502;-31
2022/07/17 11:18:20;;;;;;;4.13;1.35;;;;;;;26.51;35.63;101881.34;4995412;28;20034;-31
2022/07/17 11:20:55;;;;;;;2.10;1.10;;;;;;;26.64;34.96;101873.38;4995783;28;20029;-32
2022/07/17 11:23:21;;;;;;;1.77;1.20;;;;;;;26.73;34.69;101869.28;4993940;28;20041;-32